Time;durP1;ratioP1;P1;durP2;ratioP2;P2;SDS_P1;SDS_P2;PMS_P1;PMS_P2;Temp;Humidity;BMP_temperature;BMP_pressure;BME280_temperature;BME280_humidity;BME280_pressure;Samples;Min_cycle;Max_cycle;Signal;HPM_P1;HPM_P2
2023/10/10 00:02:04;;;;;;;;;;;;;;;14.98;100.00;102069.09;5032062;28;19928;-74
2023/10/10 00:04:33;;;;;;;;;;;;;;;14.88;100.00;102069.91;5049433;28;19929;-74
2023/10/10 00:06:58;;;;;;;;;;;;;;;14.81;100.00;102075.81;5016663;28;20280;-75
2023/10/10 00:09:23;;;;;;;;;;;;;;;14.77;100.00;102074.31;5044782;28;20382;-75
2023/10/10 00:11:51;;;;;;;;;;;;;;;14.71;100.00;102063.97;5030537;28;19921;-75
2023/10/10 00:14:19;;;;;;;;;;;;;;;14.65;100.00;102076.09;5016592;28;20039;-74
2023/10/10 00:16:47;;;;;;;;;;;;;;;14.63;100.00;102078.03;5035542;28;19969;-75
2023/10/10 00:21:48;;;;;;;;;;;;;;;14.52;100.00;102072.56;5033878;28;19924;-74
2023/10/10 00:24:14;;;;;;;;;;;;;;;14.44;100.00;102069.56;5027504;28;19963;-74
2023/10/10 00:26:42;;;;;;;;;;;;;;;14.37;100.00;102074.56;5033331;28;19963;-75
2023/10/10 00:29:09;;;;;;;;;;;;;;;14.23;100.00;102075.59;5033512;28;19920;-74
2023/10/10 00:31:34;;;;;;;;;;;;;;;14.15;100.00;102072.63;5021133;28;19979;-75
2023/10/10 00:33:59;;;;;;;;;;;;;;;14.12;100.00;102072.84;5022221;28;20055;-75
2023/10/10 00:36:31;;;;;;;;;;;;;;;14.10;100.00;102076.53;5025269;28;19924;-75
2023/10/10 00:39:38;;;;;;;;;;;;;;;14.04;100.00;102074.25;5044252;28;20034;-75
2023/10/10 00:41:50;;;;;;;;;;;;;;;14.00;100.00;102070.06;5019007;28;19982;-75
2023/10/10 00:44:17;;;;;;;;;;;;;;;13.94;100.00;102067.78;5015931;28;19924;-75
2023/10/10 00:46:42;;;;;;;;;;;;;;;13.82;100.00;102068.72;5033544;28;20359;-75
2023/10/10 00:49:14;;;;;;;;;;;;;;;13.82;100.00;102069.56;5038022;28;20180;-75
2023/10/10 00:51:40;;;;;;;;;;;;;;;13.81;100.00;102067.81;5030799;28;20425;-74
2023/10/10 00:56:54;;;;;;;;;;;;;;;13.67;100.00;102068.81;5027767;28;19932;-75
2023/10/10 00:59:20;;;;;;;;;;;;;;;13.60;100.00;102059.47;5010832;28;20409;-75
2023/10/10 01:01:46;;;;;;;;;;;;;;;13.57;100.00;102063.22;5048426;28;20527;-75
2023/10/10 01:04:12;;;;;;;;;;;;;;;13.61;100.00;102058.47;5032403;28;19928;-75
2023/10/10 01:06:39;;;;;;;;;;;;;;;13.63;100.00;102037.66;5037051;28;19931;-75
2023/10/10 01:09:15;;;;;;;;;;;;;;;13.60;100.00;102051.38;5033032;28;20630;-75
2023/10/10 01:11:42;;;;;;;;;;;;;;;13.53;100.00;102044.66;5036744;28;19966;-76
2023/10/10 01:14:07;;;;;;;;;;;;;;;13.47;100.00;102038.72;5048444;28;19924;-75
2023/10/10 01:16:33;;;;;;;;;;;;;;;13.40;100.00;102042.78;5034532;28;19951;-75
2023/10/10 01:18:58;;;;;;;;;;;;;;;13.32;100.00;102031.72;5032232;28;19939;-74
2023/10/10 01:21:30;;;;;;;;;;;;;;;13.23;100.00;102032.34;5033739;28;19928;-75
2023/10/10 01:24:00;;;;;;;;;;;;;;;13.19;100.00;102043.34;5032963;28;19963;-74
2023/10/10 01:26:30;;;;;;;;;;;;;;;13.18;100.00;102036.22;5045194;28;19944;-75
2023/10/10 01:28:55;;;;;;;;;;;;;;;13.16;100.00;102031.91;5038070;28;20289;-77
2023/10/10 01:31:20;;;;;;;;;;;;;;;13.18;100.00;102021.88;5033870;28;19920;-76
2023/10/10 01:33:49;;;;;;;;;;;;;;;13.17;100.00;102028.25;5015247;28;19967;-76
2023/10/10 01:36:22;;;;;;;;;;;;;;;13.17;100.00;102012.06;5022574;28;19920;-75
2023/10/10 01:39:20;;;;;;;;;;;;;;;13.22;100.00;102009.91;5012988;28;19924;-75
2023/10/10 01:41:48;;;;;;;;;;;;;;;13.22;100.00;102017.13;5040170;28;19932;-75
2023/10/10 01:44:32;;;;;;;;;;;;;;;13.24;100.00;102012.50;5007720;28;19929;-75
2023/10/10 01:46:58;;;;;;;;;;;;;;;13.19;100.00;102000.19;5045607;28;20023;-75
2023/10/10 01:49:29;;;;;;;;;;;;;;;13.18;100.00;102003.00;5009612;28;19927;-75
2023/10/10 01:52:00;;;;;;;;;;;;;;;13.12;100.00;102006.97;5045702;28;19986;-75
2023/10/10 01:54:39;;;;;;;;;;;;;;;13.02;100.00;101993.28;5041937;28;20640;-75
2023/10/10 01:57:07;;;;;;;;;;;;;;;13.01;100.00;101985.31;5042992;28;20582;-74
2023/10/10 01:59:35;;;;;;;;;;;;;;;12.97;100.00;101981.09;5024557;28;19936;-76
2023/10/10 02:02:02;;;;;;;;;;;;;;;12.95;100.00;101983.03;5044550;28;20298;-75
2023/10/10 02:04:34;;;;;;;;;;;;;;;12.88;100.00;101972.69;5020993;28;20011;-74
2023/10/10 02:07:04;;;;;;;;;;;;;;;12.88;100.00;101961.91;5042917;28;19946;-75
2023/10/10 02:09:33;;;;;;;;;;;;;;;12.92;100.00;101972.47;5046092;28;20194;-75
2023/10/10 02:12:08;;;;;;;;;;;;;;;12.90;100.00;101967.19;5034387;28;19921;-74
2023/10/10 02:14:33;;;;;;;;;;;;;;;12.88;100.00;101967.28;5036229;28;19931;-75
2023/10/10 02:17:06;;;;;;;;;;;;;;;12.86;100.00;101966.53;5030568;28;19920;-75
2023/10/10 02:19:39;;;;;;;;;;;;;;;12.86;100.00;101966.53;5020725;28;20035;-75
2023/10/10 02:22:23;;;;;;;;;;;;;;;12.83;100.00;101965.91;5033410;28;19922;-75
2023/10/10 02:24:49;;;;;;;;;;;;;;;12.86;100.00;101963.00;5034417;28;21029;-79
2023/10/10 02:27:19;;;;;;;;;;;;;;;12.82;100.00;101961.47;5024020;28;19920;-74
2023/10/10 02:29:48;;;;;;;;;;;;;;;12.77;100.00;101956.41;5039589;28;20393;-76
2023/10/10 02:32:18;;;;;;;;;;;;;;;12.81;100.00;101955.25;5050081;28;19924;-78
2023/10/10 02:34:44;;;;;;;;;;;;;;;12.79;100.00;101953.59;5046010;28;19928;-75
2023/10/10 02:39:48;;;;;;;;;;;;;;;12.72;100.00;101945.94;5042517;28;20428;-75
2023/10/10 02:42:18;;;;;;;;;;;;;;;12.73;100.00;101950.34;5043966;28;19967;-75
2023/10/10 02:44:57;;;;;;;;;;;;;;;12.72;100.00;101947.78;5045185;28;19924;-75
2023/10/10 02:47:30;;;;;;;;;;;;;;;12.71;100.00;101946.06;5045955;28;20009;-75
2023/10/10 02:50:00;;;;;;;;;;;;;;;12.76;100.00;101946.59;5042123;28;20346;-75
2023/10/10 02:52:28;;;;;;;;;;;;;;;12.76;100.00;101943.91;5019184;28;19917;-75
2023/10/10 02:54:56;;;;;;;;;;;;;;;12.77;100.00;101947.44;5032088;28;19921;-75
2023/10/10 02:59:58;;;;;;;;;;;;;;;12.73;100.00;101944.97;5051228;28;20394;-76
2023/10/10 03:02:40;;;;;;;;;;;;;;;12.69;100.00;101938.09;5027049;28;19920;-75
2023/10/10 03:05:06;;;;;;;;;;;;;;;12.74;100.00;101941.31;5050197;28;19968;-75
2023/10/10 03:07:32;;;;;;;;;;;;;;;12.69;100.00;101940.78;5033974;28;20253;-77
2023/10/10 03:12:31;;;;;;;;;;;;;;;12.73;100.00;101942.28;5029421;28;20287;-75
2023/10/10 03:15:12;;;;;;;;;;;;;;;12.71;100.00;101943.38;5031279;28;20386;-75
2023/10/10 03:17:48;;;;;;;;;;;;;;;12.68;100.00;101946.25;5031158;28;19931;-76
2023/10/10 03:20:34;;;;;;;;;;;;;;;12.68;100.00;101947.16;5034292;28;19924;-76
2023/10/10 03:23:18;;;;;;;;;;;;;;;12.71;100.00;101943.38;5033710;28;20046;-76
2023/10/10 03:26:03;;;;;;;;;;;;;;;12.72;100.00;101954.03;5036722;28;19930;-75
2023/10/10 03:33:44;;;;;;;;;;;;;;;12.75;100.00;101944.88;5049546;28;19920;-75
2023/10/10 05:25:13;;;;;;;;;;;;;;;12.21;100.00;101882.09;5026335;28;19975;-75
2023/10/10 05:27:44;;;;;;;;;;;;;;;12.18;100.00;101868.84;5015533;28;20408;-79
2023/10/10 05:30:23;;;;;;;;;;;;;;;11.96;100.00;101829.91;5023802;28;20473;-79
2023/10/10 05:33:00;;;;;;;;;;;;;;;12.22;100.00;101872.19;5041220;28;19925;-77
2023/10/10 05:35:27;;;;;;;;;;;;;;;12.11;100.00;101865.72;5014655;28;20378;-77
2023/10/10 05:37:53;;;;;;;;;;;;;;;12.13;100.00;101877.25;5028722;28;19942;-80
2023/10/10 05:40:20;;;;;;;;;;;;;;;12.11;100.00;101868.41;5031840;28;20491;-77
2023/10/10 05:42:45;;;;;;;;;;;;;;;12.11;100.00;101864.84;5042838;28;19927;-78
2023/10/10 05:45:13;;;;;;;;;;;;;;;12.09;100.00;101866.78;5027615;28;19925;-77
2023/10/10 05:47:39;;;;;;;;;;;;;;;12.04;100.00;101863.56;5027362;28;19982;-77
2023/10/10 05:50:05;;;;;;;;;;;;;;;11.93;100.00;101862.41;5040900;28;20340;-80
2023/10/10 05:52:30;;;;;;;;;;;;;;;11.90;100.00;101859.06;5027976;28;20027;-78
2023/10/10 05:54:55;;;;;;;;;;;;;;;11.87;100.00;101856.59;5032602;28;20561;-79
2023/10/10 05:57:20;;;;;;;;;;;;;;;11.85;100.00;101854.84;5025955;28;20383;-75
2023/10/10 05:59:45;;;;;;;;;;;;;;;11.84;100.00;101853.13;5022499;28;20368;-76
2023/10/10 06:02:12;;;;;;;;;;;;;;;11.85;100.00;101859.34;5026959;28;19941;-77
2023/10/10 06:04:37;;;;;;;;;;;;;;;11.81;100.00;101853.34;5033835;28;19920;-76
2023/10/10 06:07:03;;;;;;;;;;;;;;;11.83;100.00;101847.84;5034907;28;20470;-74
2023/10/10 06:09:33;;;;;;;;;;;;;;;11.83;100.00;101853.22;5020389;28;19921;-75
2023/10/10 06:12:04;;;;;;;;;;;;;;;11.82;100.00;101852.38;5025273;28;19924;-76
2023/10/10 06:14:29;;;;;;;;;;;;;;;11.77;100.00;101854.50;5031835;28;20015;-75
2023/10/10 06:16:54;;;;;;;;;;;;;;;11.77;100.00;101851.81;5029610;28;19921;-76
2023/10/10 06:19:20;;;;;;;;;;;;;;;11.79;100.00;101855.25;5031010;28;19929;-75
2023/10/10 06:21:46;;;;;;;;;;;;;;;11.73;100.00;101847.59;5018784;28;19928;-74
2023/10/10 06:24:12;;;;;;;;;;;;;;;11.83;100.00;101855.91;5029691;28;19925;-75
2023/10/10 06:26:43;;;;;;;;;;;;;;;11.81;100.00;101852.44;5012695;28;19920;-75
2023/10/10 06:29:12;;;;;;;;;;;;;;;11.83;100.00;101851.41;5008081;28;19921;-76
2023/10/10 06:31:42;;;;;;;;;;;;;;;11.88;100.00;101864.53;5023248;28;19952;-74
2023/10/10 06:34:19;;;;;;;;;;;;;;;11.88;100.00;101842.16;5023830;28;20016;-74
2023/10/10 06:36:48;;;;;;;;;;;;;;;11.85;100.00;101841.41;5028389;28;19964;-75
2023/10/10 06:41:50;;;;;;;;;;;;;;;11.92;100.00;101844.53;5022850;28;19966;-76
2023/10/10 06:44:31;;;;;;;;;;;;;;;11.96;100.00;101846.06;5023669;28;19935;-76
2023/10/10 06:46:57;;;;;;;;;;;;;;;11.97;100.00;101847.78;5023711;28;20226;-75
2023/10/10 06:49:23;;;;;;;;;;;;;;;12.04;100.00;101844.72;5028236;28;19923;-76
2023/10/10 06:51:49;;;;;;;;;;;;;;;12.05;100.00;101841.06;5024333;28;19931;-75
2023/10/10 06:54:27;;;;;;;;;;;;;;;12.04;100.00;101847.41;5021042;28;19995;-74
2023/10/10 06:59:27;;;;;;;;;;;;;;;12.12;100.00;101850.41;5025454;28;20377;-74
2023/10/10 07:01:52;;;;;;;;;;;;;;;12.17;100.00;101855.50;5024564;28;19920;-73
2023/10/10 07:04:19;;;;;;;;;;;;;;;12.23;100.00;101855.06;5018586;28;20387;-74
2023/10/10 07:06:47;;;;;;;;;;;;;;;12.28;100.00;101852.91;5026806;28;20329;-74
2023/10/10 07:09:27;;;;;;;;;;;;;;;12.29;100.00;101852.84;5030181;28;19932;-73
2023/10/10 07:11:52;;;;;;;;;;;;;;;12.37;100.00;101848.72;5027089;28;19967;-76
2023/10/10 07:14:17;;;;;;;;;;;;;;;12.40;100.00;101852.09;5013506;28;20047;-73
2023/10/10 07:16:42;;;;;;;;;;;;;;;12.48;100.00;101840.78;5029754;28;19921;-74
2023/10/10 07:19:30;;;;;;;;;;;;;;;12.58;100.00;101851.75;5027893;28;19936;-74
2023/10/10 07:21:56;;;;;;;;;;;;;;;12.69;100.00;101859.06;5022823;28;19978;-74
2023/10/10 07:24:28;;;;;;;;;;;;;;;12.71;100.00;101868.75;5026343;28;20597;-74
2023/10/10 07:27:05;;;;;;;;;;;;;;;12.81;100.00;101874.38;5028873;28;19920;-75
2023/10/10 07:29:57;;;;;;;;;;;;;;;12.94;100.00;101879.78;5021262;28;19927;-74
2023/10/10 07:32:16;;;;;;;;;;;;;;;12.90;100.00;101864.78;5032543;28;19971;-74
2023/10/10 07:34:50;;;;;;;;;;;;;;;13.08;100.00;101881.47;5024446;28;19924;-74
2023/10/10 07:37:18;;;;;;;;;;;;;;;13.11;100.00;101872.28;5023615;28;19968;-74
2023/10/10 07:39:57;;;;;;;;;;;;;;;13.00;100.00;101857.75;5021390;28;19928;-73
2023/10/10 07:42:29;;;;;;;;;;;;;;;13.18;100.00;101878.97;5030817;28;20445;-74
2023/10/10 07:44:55;;;;;;;;;;;;;;;13.23;100.00;101879.50;5010875;28;19928;-73
2023/10/10 07:47:27;;;;;;;;;;;;;;;13.29;100.00;101873.63;5032292;28;19965;-74
2023/10/10 07:49:55;;;;;;;;;;;;;;;13.32;100.00;101873.41;5034152;28;19971;-74
2023/10/10 07:52:20;;;;;;;;;;;;;;;13.45;100.00;101875.25;5030771;28;20375;-73
2023/10/10 07:54:46;;;;;;;;;;;;;;;13.57;100.00;101877.03;5033649;28;19928;-73
2023/10/10 07:57:17;;;;;;;;;;;;;;;13.64;100.00;101875.63;5031218;28;19920;-73
2023/10/10 07:59:43;;;;;;;;;;;;;;;13.81;100.00;101881.56;5027365;28;19921;-74
2023/10/10 08:04:56;;;;;;;;;;;;;;;13.87;100.00;101874.88;5030508;28;20421;-73
2023/10/10 08:07:23;;;;;;;;;;;;;;;13.91;100.00;101877.22;5034139;28;20014;-73
2023/10/10 08:09:48;;;;;;;;;;;;;;;13.95;100.00;101876.00;5012252;28;20438;-73
2023/10/10 08:12:14;;;;;;;;;;;;;;;14.07;100.00;101870.63;5013400;28;20043;-73
2023/10/10 08:14:39;;;;;;;;;;;;;;;14.13;100.00;101874.72;5027208;28;20474;-73
2023/10/10 08:17:21;;;;;;;;;;;;;;;14.31;100.00;101873.31;5030248;28;19925;-73
2023/10/10 08:19:51;;;;;;;;;;;;;;;14.30;100.00;101876.97;5027719;28;19931;-73
2023/10/10 08:22:25;;;;;;;;;;;;;;;14.37;100.00;101867.44;5034141;28;19920;-73
2023/10/10 08:24:51;;;;;;;;;;;;;;;14.46;100.00;101868.56;5012417;28;19975;-73
2023/10/10 08:27:16;;;;;;;;;;;;;;;14.39;100.00;101865.47;5013556;28;20011;-74
2023/10/10 08:29:41;;;;;;;;;;;;;;;14.50;100.00;101867.34;5044362;28;19925;-73
2023/10/10 08:32:08;;;;;;;;;;;;;;;14.52;100.00;101861.78;5028631;28;19921;-73
2023/10/10 08:34:38;;;;;;;;;;;;;;;14.52;100.00;101859.97;5010968;28;20398;-73
2023/10/10 08:37:03;;;;;;;;;;;;;;;14.60;100.00;101853.06;5015120;28;19928;-72
2023/10/10 08:39:35;;;;;;;;;;;;;;;14.67;100.00;101848.91;5027187;28;19997;-74
2023/10/10 08:42:05;;;;;;;;;;;;;;;14.76;100.00;101858.16;5013910;28;19920;-74
2023/10/10 08:44:30;;;;;;;;;;;;;;;14.77;100.00;101855.34;5029447;28;19931;-73
2023/10/10 08:46:58;;;;;;;;;;;;;;;14.86;100.00;101856.47;5031248;28;19921;-74
2023/10/10 08:49:23;;;;;;;;;;;;;;;14.82;100.00;101854.97;5030412;28;20441;-73
2023/10/10 08:51:49;;;;;;;;;;;;;;;14.82;100.00;101860.38;5032253;28;20055;-73
2023/10/10 08:54:15;;;;;;;;;;;;;;;14.85;100.00;101863.69;5026579;28;19958;-73
2023/10/10 08:56:59;;;;;;;;;;;;;;;15.07;100.00;101871.94;5027528;28;19925;-75
2023/10/10 08:59:24;;;;;;;;;;;;;;;15.05;100.00;101877.47;5028669;28;19946;-72
2023/10/10 09:01:49;;;;;;;;;;;;;;;15.24;100.00;101875.97;5015664;28;19920;-73
2023/10/10 09:04:18;;;;;;;;;;;;;;;15.37;100.00;101868.56;5029365;28;20015;-74
2023/10/10 09:06:45;;;;;;;;;;;;;;;15.39;100.00;101869.31;5030783;28;19924;-73
2023/10/10 09:11:56;;;;;;;;;;;;;;;15.43;100.00;101865.34;5032523;28;19939;-73
2023/10/10 09:14:27;;;;;;;;;;;;;;;15.52;100.00;101862.88;5015739;28;20338;-73
2023/10/10 09:16:53;;;;;;;;;;;;;;;15.71;100.00;101860.38;5017130;28;20457;-72
2023/10/10 09:19:19;;;;;;;;;;;;;;;15.78;100.00;101860.69;5039783;28;19974;-72
2023/10/10 09:21:50;;;;;;;;;;;;;;;15.83;100.00;101863.88;5034353;28;20074;-73
2023/10/10 09:24:27;;;;;;;;;;;;;;;15.74;100.00;101861.97;5032128;28;19989;-74
2023/10/10 09:26:56;;;;;;;;;;;;;;;15.82;100.00;101862.16;5019215;28;19920;-74
2023/10/10 09:29:34;;;;;;;;;;;;;;;15.86;100.00;101846.56;5035645;28;20129;-74
2023/10/10 09:32:00;;;;;;;;;;;;;;;16.25;100.00;101857.69;5054483;28;20370;-76
2023/10/10 09:34:28;;;;;;;;;;;;;;;16.25;100.00;101854.97;5051483;28;19927;-72
2023/10/10 09:36:56;;;;;;;;;;;;;;;16.37;100.00;101844.09;5035695;28;19924;-73
2023/10/10 09:39:37;;;;;;;;;;;;;;;16.53;100.00;101851.75;5051945;28;20369;-74
2023/10/10 09:47:55;;;;;;;;;;;;;;;16.95;100.00;101846.22;5033781;28;19927;-72
2023/10/10 09:52:53;;;;;;;;;;;;;;;17.17;100.00;101833.47;5047113;28;19924;-74
2023/10/10 10:03:31;;;;;;;;;;;;;;;17.98;100.00;101822.41;5030134;28;19962;-71
2023/10/10 10:05:58;;;;;;;;;;;;;;;17.80;100.00;101821.41;5050992;28;19964;-75
2023/10/10 10:08:24;;;;;;;;;;;;;;;18.06;100.00;101821.69;5031045;28;20198;-72
2023/10/10 10:10:57;;;;;;;;;;;;;;;17.89;100.00;101823.22;5032258;28;19962;-75
2023/10/10 10:13:28;;;;;;;;;;;;;;;18.14;100.00;101810.94;5028803;28;19928;-74
2023/10/10 10:15:53;;;;;;;;;;;;;;;18.11;100.00;101813.97;5051153;28;20457;-73
2023/10/10 10:18:44;;;;;;;;;;;;;;;18.49;100.00;101822.16;5053318;28;19924;-74
2023/10/10 10:23:45;;;;;;;;;;;;;;;18.71;100.00;101814.63;5007826;28;20011;-75
2023/10/10 10:26:11;;;;;;;;;;;;;;;18.57;100.00;101810.53;5009080;28;19929;-73
2023/10/10 10:28:36;;;;;;;;;;;;;;;18.98;100.00;101811.13;5009079;28;19929;-72
2023/10/10 10:31:05;;;;;;;;;;;;;;;19.16;100.00;101808.44;5002423;28;19959;-72
2023/10/10 10:33:33;;;;;;;;;;;;;;;19.30;100.00;101814.38;4995367;28;19968;-74
2023/10/10 10:36:06;;;;;;;;;;;;;;;19.21;100.00;101820.72;4991911;28;19964;-74
2023/10/10 10:38:31;;;;;;;;;;;;;;;20.08;100.00;101816.47;5008814;28;19924;-72
2023/10/10 10:41:17;;;;;;;;;;;;;;;20.20;100.00;101813.50;5008319;28;19921;-72
2023/10/10 10:43:49;;;;;;;;;;;;;;;20.82;100.00;101809.78;5005647;28;20072;-72
2023/10/10 10:46:15;;;;;;;;;;;;;;;20.85;100.00;101811.34;5007408;28;20316;-73
2023/10/10 10:48:41;;;;;;;;;;;;;;;21.52;100.00;101805.03;5009176;28;19924;-75
2023/10/10 10:51:22;;;;;;;;;;;;;;;21.21;100.00;101802.91;4993386;28;19922;-74
2023/10/10 10:53:50;;;;;;;;;;;;;;;21.18;100.00;101801.38;5012279;28;19952;-72
2023/10/10 11:01:21;;;;;;;;;;;;;;;21.76;100.00;101793.31;5005422;28;20627;-72
2023/10/10 11:03:51;;;;;;;;;;;;;;;21.62;100.00;101792.09;5007485;28;19921;-74
2023/10/10 11:06:20;;;;;;;;;;;;;;;21.79;100.00;101790.22;4995760;28;20741;-74
2023/10/10 11:14:00;;;;;;;;;;;;;;;22.34;94.17;101771.34;5009218;28;19964;-75
2023/10/10 11:16:37;;;;;;;;;;;;;;;22.06;93.15;101752.63;4993158;28;19991;-74
2023/10/10 11:19:12;;;;;;;;;;;;;;;23.16;88.85;101763.84;5014431;28;20371;-73
2023/10/10 11:21:37;;;;;;;;;;;;;;;23.59;83.96;101768.84;5031301;28;20094;-74
2023/10/10 11:24:04;;;;;;;;;;;;;;;23.26;79.24;101755.41;5029562;28;20143;-73
2023/10/10 11:26:35;;;;;;;;;;;;;;;23.02;80.39;101762.72;5015423;28;19932;-74
2023/10/10 11:29:00;;;;;;;;;;;;;;;23.05;79.70;101762.34;5030612;28;20037;-75
2023/10/10 11:31:29;;;;;;;;;;;;;;;22.89;82.81;101763.31;5019390;28;20042;-73
2023/10/10 11:34:10;;;;;;;;;;;;;;;23.03;80.98;101757.06;5032892;28;19958;-73
2023/10/10 11:36:39;;;;;;;;;;;;;;;23.59;77.58;101753.28;5029145;28;19964;-77
2023/10/10 11:39:17;;;;;;;;;;;;;;;23.79;74.97;101755.50;5031463;28;19921;-73
2023/10/10 11:41:46;;;;;;;;;;;;;;;23.69;77.15;101763.97;5033480;28;19952;-75
2023/10/10 11:44:16;;;;;;;;;;;;;;;23.70;74.38;101757.47;5013917;28;19917;-74
2023/10/10 11:46:42;;;;;;;;;;;;;;;24.63;74.62;101743.47;5050733;28;19931;-73
2023/10/10 11:49:15;;;;;;;;;;;;;;;25.68;68.19;101754.16;5049687;28;19921;-72
2023/10/10 11:51:41;;;;;;;;;;;;;;;25.09;62.05;101747.84;5031612;28;19921;-74
2023/10/10 11:54:06;;;;;;;;;;;;;;;25.50;62.20;101748.28;5047470;28;20449;-73
2023/10/10 11:56:34;;;;;;;;;;;;;;;25.29;61.33;101749.97;5031595;28;19920;-72
2023/10/10 11:59:00;;;;;;;;;;;;;;;25.40;64.26;101737.59;5034088;28;19920;-74
2023/10/10 12:04:20;;;;;;;;;;;;;;;25.56;62.39;101709.00;5045720;28;19935;-72
2023/10/10 12:06:49;;;;;;;;;;;;;;;27.88;54.01;101731.56;5026272;28;20035;-73
2023/10/10 12:09:19;;;;;;;;;;;;;;;26.89;52.63;101732.06;5044198;28;20002;-73
2023/10/10 12:11:44;;;;;;;;;;;;;;;26.44;55.64;101719.56;5029926;28;19920;-73
2023/10/10 12:14:12;;;;;;;;;;;;;;;25.87;56.57;101725.13;5028585;28;19919;-75
2023/10/10 12:16:37;;;;;;;;;;;;;;;25.35;59.60;101724.44;5027374;28;20391;-72
2023/10/10 12:19:05;;;;;;;;;;;;;;;25.32;59.17;101719.31;5048433;28;19924;-73
2023/10/10 12:21:31;;;;;;;;;;;;;;;26.02;58.88;101710.41;5046631;28;19931;-72
2023/10/10 12:23:57;;;;;;;;;;;;;;;27.19;54.41;101715.19;5030369;28;19921;-72
2023/10/10 12:26:22;;;;;;;;;;;;;;;27.01;52.81;101715.78;5028489;28;19997;-72
2023/10/10 12:28:48;;;;;;;;;;;;;;;26.12;53.36;101708.19;5046384;28;20768;-73
2023/10/10 12:31:16;;;;;;;;;;;;;;;26.74;54.31;101708.25;5052440;28;19967;-73
2023/10/10 12:33:45;;;;;;;;;;;;;;;26.18;52.30;101703.75;5049830;28;19958;-73
2023/10/10 12:36:10;;;;;;;;;;;;;;;25.78;53.39;101709.81;5034091;28;20538;-74
2023/10/10 12:38:37;;;;;;;;;;;;;;;27.06;52.04;101707.75;5033225;28;19921;-74
2023/10/10 12:41:05;;;;;;;;;;;;;;;27.87;48.46;101708.63;5054322;28;19925;-73
2023/10/10 12:43:30;;;;;;;;;;;;;;;27.43;49.88;101704.59;5035888;28;19925;-72
2023/10/10 12:45:55;;;;;;;;;;;;;;;28.20;46.17;101699.47;5050549;28;20305;-72
2023/10/10 12:48:20;;;;;;;;;;;;;;;29.30;42.62;101692.09;5056525;28;20657;-73
2023/10/10 12:50:46;;;;;;;;;;;;;;;30.17;42.83;101697.97;5056720;28;20380;-73
2023/10/10 12:53:15;;;;;;;;;;;;;;;28.85;43.10;101692.19;5038148;28;20287;-74
2023/10/10 12:55:48;;;;;;;;;;;;;;;27.68;45.04;101702.06;5033853;28;19932;-76
2023/10/10 12:58:16;;;;;;;;;;;;;;;26.88;47.17;101681.59;5033266;28;20337;-73
2023/10/10 13:00:49;;;;;;;;;;;;;;;27.96;47.65;101676.13;5030966;28;19928;-72
2023/10/10 13:03:15;;;;;;;;;;;;;;;27.73;45.14;101691.25;5055122;28;19921;-72
2023/10/10 13:05:40;;;;;;;;;;;;;;;29.17;43.46;101678.38;5050886;28;19920;-73
2023/10/10 13:08:06;;;;;;;;;;;;;;;29.33;44.44;101677.81;5048992;28;19932;-73
2023/10/10 13:10:37;;;;;;;;;;;;;;;28.17;44.73;101686.09;5034961;28;19934;-74
2023/10/10 13:13:02;;;;;;;;;;;;;;;27.73;45.73;101684.88;5033018;28;20414;-75
2023/10/10 13:15:46;;;;;;;;;;;;;;;28.14;47.35;101675.47;5033466;28;19943;-73
2023/10/10 13:18:19;;;;;;;;;;;;;;;27.85;46.87;101677.63;5052572;28;19921;-78
2023/10/10 13:20:44;;;;;;;;;;;;;;;27.72;45.64;101674.91;5038100;28;19920;-73
2023/10/10 13:23:09;;;;;;;;;;;;;;;28.12;47.34;101678.47;5040251;28;19928;-73
2023/10/10 13:25:37;;;;;;;;;;;;;;;28.45;45.29;101668.38;5055900;28;19971;-74
2023/10/10 13:28:09;;;;;;;;;;;;;;;28.29;45.65;101684.38;5033832;28;19924;-72
2023/10/10 13:30:38;;;;;;;;;;;;;;;28.07;46.27;101669.13;5035987;28;19921;-73
2023/10/10 13:33:04;;;;;;;;;;;;;;;27.22;49.66;101677.00;5051552;28;19942;-73
2023/10/10 13:35:30;;;;;;;;;;;;;;;25.62;50.68;101668.88;5033650;28;19931;-73
2023/10/10 13:37:55;;;;;;;;;;;;;;;24.66;55.11;101677.19;5052212;28;20693;-76
2023/10/10 13:40:22;;;;;;;;;;;;;;;24.14;59.53;101669.97;5050042;28;20371;-73
2023/10/10 13:42:47;;;;;;;;;;;;;;;23.81;59.96;101673.91;5037194;28;19916;-73
2023/10/10 13:45:19;;;;;;;;;;;;;;;23.73;62.48;101671.25;5053841;28;20021;-73
2023/10/10 13:47:48;;;;;;;;;;;;;;;24.46;67.13;101673.34;5049505;28;20025;-74
2023/10/10 13:50:28;;;;;;;;;;;;;;;24.40;59.57;101672.25;5049785;28;19921;-74
2023/10/10 13:52:53;;;;;;;;;;;;;;;24.80;60.09;101666.41;5038427;28;20332;-73
2023/10/10 13:55:18;;;;;;;;;;;;;;;24.70;57.68;101669.44;5034910;28;20362;-73
2023/10/10 13:57:43;;;;;;;;;;;;;;;24.17;59.36;101658.63;5034531;28;19920;-73
2023/10/10 14:00:28;;;;;;;;;;;;;;;24.38;59.78;101657.84;5032477;28;20326;-76
2023/10/10 14:02:59;;;;;;;;;;;;;;;24.28;60.70;101655.41;5022307;28;19967;-74
2023/10/10 14:05:25;;;;;;;;;;;;;;;23.99;57.59;101654.38;5051061;28;19935;-75
2023/10/10 14:07:51;;;;;;;;;;;;;;;23.97;58.85;101656.44;5031381;28;19925;-74
2023/10/10 14:10:20;;;;;;;;;;;;;;;23.95;57.98;101648.41;5033626;28;19920;-74
2023/10/10 14:12:45;;;;;;;;;;;;;;;24.08;59.88;101641.41;5033901;28;20015;-73
2023/10/10 14:15:11;;;;;;;;;;;;;;;23.36;57.55;101646.41;5034322;28;20007;-75
2023/10/10 14:17:36;;;;;;;;;;;;;;;23.77;60.50;101637.81;5053336;28;19959;-74
2023/10/10 14:20:09;;;;;;;;;;;;;;;23.69;57.48;101646.09;4999899;28;19979;-73
2023/10/10 14:22:38;;;;;;;;;;;;;;;23.68;59.63;101636.19;5012313;28;19925;-73
2023/10/10 14:25:04;;;;;;;;;;;;;;;23.84;58.57;101632.41;5010865;28;19943;-74
2023/10/10 14:27:29;;;;;;;;;;;;;;;23.92;57.40;101635.06;5011499;28;20308;-73
2023/10/10 14:29:54;;;;;;;;;;;;;;;23.88;57.25;101630.13;4996696;28;19921;-74
2023/10/10 14:32:19;;;;;;;;;;;;;;;23.71;56.07;101634.94;5014937;28;20398;-74
2023/10/10 14:34:45;;;;;;;;;;;;;;;23.44;57.64;101629.91;5007921;28;19956;-73
2023/10/10 14:37:12;;;;;;;;;;;;;;;23.67;60.27;101623.50;5009331;28;19921;-74
2023/10/10 14:39:44;;;;;;;;;;;;;;;23.66;58.67;101616.31;5006977;28;19918;-75
2023/10/10 14:42:10;;;;;;;;;;;;;;;23.47;60.40;101614.97;5011672;28;20279;-74
2023/10/10 14:44:40;;;;;;;;;;;;;;;23.35;63.01;101615.44;5009624;28;20301;-74
2023/10/10 14:47:06;;;;;;;;;;;;;;;23.13;60.71;101614.41;5012585;28;19929;-74
2023/10/10 14:49:31;;;;;;;;;;;;;;;22.74;59.71;101609.94;5020550;28;19932;-75
2023/10/10 14:52:02;;;;;;;;;;;;;;;22.39;62.14;101604.78;5005079;28;19925;-74
2023/10/10 14:54:28;;;;;;;;;;;;;;;22.34;63.66;101599.03;4989504;28;19917;-74
2023/10/10 14:56:54;;;;;;;;;;;;;;;22.30;66.37;101605.88;5005301;28;19964;-74
2023/10/10 14:59:31;;;;;;;;;;;;;;;22.04;66.85;101601.56;5005289;28;19939;-74
2023/10/10 15:01:59;;;;;;;;;;;;;;;21.95;67.79;101605.34;5021110;28;19921;-73
2023/10/10 15:04:28;;;;;;;;;;;;;;;21.85;69.56;101597.34;5029155;28;20008;-73
2023/10/10 15:06:56;;;;;;;;;;;;;;;21.96;69.67;101599.72;5015394;28;19964;-75
2023/10/10 15:09:24;;;;;;;;;;;;;;;22.05;69.12;101594.19;5011766;28;20195;-74
2023/10/10 15:11:50;;;;;;;;;;;;;;;22.15;71.06;101595.69;5010893;28;20548;-74
2023/10/10 15:14:19;;;;;;;;;;;;;;;22.40;69.14;101592.81;5010800;28;19986;-74
2023/10/10 15:16:47;;;;;;;;;;;;;;;22.61;69.05;101592.22;4995916;28;20894;-74
2023/10/10 15:19:12;;;;;;;;;;;;;;;22.61;70.26;101591.38;5010743;28;20201;-74
2023/10/10 15:21:38;;;;;;;;;;;;;;;22.54;68.72;101585.75;5026488;28;19976;-74
2023/10/10 15:24:04;;;;;;;;;;;;;;;22.61;70.54;101583.16;5006551;28;20354;-73
2023/10/10 15:26:30;;;;;;;;;;;;;;;22.54;69.12;101585.75;5025219;28;19925;-75
2023/10/10 15:28:56;;;;;;;;;;;;;;;22.40;70.86;101584.59;5024283;28;20417;-75
2023/10/10 15:31:25;;;;;;;;;;;;;;;22.32;75.29;101584.66;5030673;28;19923;-72